sensor_id;sensor_type;location;lat;lon;timestamp;pressure;altitude;pressure_sealevel;temperature;humidity
46506;BME280;32220;49.808;9.968;2023-03-18T00:00:33;98347.59;;;9.64;63.19
46506;BME280;32220;49.808;9.968;2023-03-18T00:03:01;98352.88;;;9.64;64.71
46506;BME280;32220;49.808;9.968;2023-03-18T00:05:30;98360.19;;;9.61;64.26
46506;BME280;32220;49.808;9.968;2023-03-18T00:07:59;98371.06;;;9.56;64.15
46506;BME280;32220;49.808;9.968;2023-03-18T00:10:31;98371.25;;;9.53;64.02
46506;BME280;32220;49.808;9.968;2023-03-18T00:13:01;98350.19;;;9.39;63.98
46506;BME280;32220;49.808;9.968;2023-03-18T00:15:29;98359.50;;;9.45;64.05
46506;BME280;32220;49.808;9.968;2023-03-18T00:18:00;98371.88;;;9.44;63.75
46506;BME280;32220;49.808;9.968;2023-03-18T00:20:30;98377.34;;;9.41;64.02
46506;BME280;32220;49.808;9.968;2023-03-18T00:23:05;98384.75;;;9.36;63.72
46506;BME280;32220;49.808;9.968;2023-03-18T00:25:35;98388.53;;;9.32;64.00
46506;BME280;32220;49.808;9.968;2023-03-18T00:28:03;98373.72;;;9.29;65.57
46506;BME280;32220;49.808;9.968;2023-03-18T00:30:31;98356.97;;;9.16;65.91
46506;BME280;32220;49.808;9.968;2023-03-18T00:32:59;98371.38;;;9.25;66.87
46506;BME280;32220;49.808;9.968;2023-03-18T00:35:27;98357.28;;;9.12;66.52
46506;BME280;32220;49.808;9.968;2023-03-18T00:37:57;98351.44;;;9.07;68.27
46506;BME280;32220;49.808;9.968;2023-03-18T00:40:25;98384.22;;;9.17;67.54
46506;BME280;32220;49.808;9.968;2023-03-18T00:43:09;98382.28;;;9.06;66.71
46506;BME280;32220;49.808;9.968;2023-03-18T00:45:39;98388.41;;;9.07;66.61
46506;BME280;32220;49.808;9.968;2023-03-18T00:48:07;98365.06;;;8.86;66.36
46506;BME280;32220;49.808;9.968;2023-03-18T00:50:36;98399.91;;;9.06;67.07
46506;BME280;32220;49.808;9.968;2023-03-18T00:53:05;98387.75;;;9.03;66.92
46506;BME280;32220;49.808;9.968;2023-03-18T00:55:33;98391.47;;;9.00;66.99
46506;BME280;32220;49.808;9.968;2023-03-18T00:58:01;98382.59;;;8.87;67.16
46506;BME280;32220;49.808;9.968;2023-03-18T01:00:29;98406.72;;;8.95;66.80
46506;BME280;32220;49.808;9.968;2023-03-18T01:02:57;98405.97;;;8.93;66.48
46506;BME280;32220;49.808;9.968;2023-03-18T01:05:25;98361.34;;;8.62;66.70
46506;BME280;32220;49.808;9.968;2023-03-18T01:07:53;98407.50;;;8.83;66.28
46506;BME280;32220;49.808;9.968;2023-03-18T01:10:23;98409.88;;;8.88;66.35
46506;BME280;32220;49.808;9.968;2023-03-18T01:12:50;98410.72;;;8.88;66.40
46506;BME280;32220;49.808;9.968;2023-03-18T01:15:19;98413.91;;;8.93;66.63
46506;BME280;32220;49.808;9.968;2023-03-18T01:17:48;98406.91;;;8.92;66.38
46506;BME280;32220;49.808;9.968;2023-03-18T01:20:18;98396.16;;;8.95;66.29
46506;BME280;32220;49.808;9.968;2023-03-18T01:22:51;98395.66;;;9.03;66.79
46506;BME280;32220;49.808;9.968;2023-03-18T01:25:19;98393.69;;;9.07;67.26
46506;BME280;32220;49.808;9.968;2023-03-18T01:27:52;98386.44;;;8.96;66.85
46506;BME280;32220;49.808;9.968;2023-03-18T01:30:21;98405.09;;;9.07;66.82
46506;BME280;32220;49.808;9.968;2023-03-18T01:32:51;98398.03;;;9.08;66.46
46506;BME280;32220;49.808;9.968;2023-03-18T01:35:20;98351.78;;;8.74;66.67
46506;BME280;32220;49.808;9.968;2023-03-18T01:37:49;98401.53;;;9.08;66.50
46506;BME280;32220;49.808;9.968;2023-03-18T01:40:19;98395.78;;;9.02;66.55
46506;BME280;32220;49.808;9.968;2023-03-18T01:42:55;98412.19;;;9.07;66.51
46506;BME280;32220;49.808;9.968;2023-03-18T01:45:29;98390.22;;;8.92;66.24
46506;BME280;32220;49.808;9.968;2023-03-18T01:48:03;98415.00;;;9.04;66.53
46506;BME280;32220;49.808;9.968;2023-03-18T01:50:33;98409.72;;;9.04;66.73
46506;BME280;32220;49.808;9.968;2023-03-18T01:53:04;98409.53;;;9.07;66.87
46506;BME280;32220;49.808;9.968;2023-03-18T01:55:34;98404.91;;;9.10;66.72
46506;BME280;32220;49.808;9.968;2023-03-18T01:58:07;98414.22;;;9.16;66.75
46506;BME280;32220;49.808;9.968;2023-03-18T02:00:40;98408.75;;;9.19;66.47
46506;BME280;32220;49.808;9.968;2023-03-18T02:03:10;98401.34;;;9.11;66.49
46506;BME280;32220;49.808;9.968;2023-03-18T02:05:39;98391.81;;;9.09;66.44
46506;BME280;32220;49.808;9.968;2023-03-18T02:08:10;98409.13;;;9.27;66.52
46506;BME280;32220;49.808;9.968;2023-03-18T02:10:37;98413.06;;;9.34;66.07
46506;BME280;32220;49.808;9.968;2023-03-18T02:13:09;98414.66;;;9.36;66.46
46506;BME280;32220;49.808;9.968;2023-03-18T02:15:44;98408.81;;;9.31;66.26
46506;BME280;32220;49.808;9.968;2023-03-18T02:18:18;98409.47;;;9.35;66.04
46506;BME280;32220;49.808;9.968;2023-03-18T02:20:56;98416.66;;;9.33;66.13
46506;BME280;32220;49.808;9.968;2023-03-18T02:23:36;98407.06;;;9.18;66.16
46506;BME280;32220;49.808;9.968;2023-03-18T02:26:10;98423.81;;;9.31;66.14
46506;BME280;32220;49.808;9.968;2023-03-18T02:28:43;98399.03;;;9.19;66.00
46506;BME280;32220;49.808;9.968;2023-03-18T02:31:13;98413.66;;;9.25;66.14
46506;BME280;32220;49.808;9.968;2023-03-18T02:33:45;98409.84;;;9.29;66.63
46506;BME280;32220;49.808;9.968;2023-03-18T02:36:16;98431.91;;;9.42;66.37
46506;BME280;32220;49.808;9.968;2023-03-18T02:38:46;98421.13;;;9.45;67.17
46506;BME280;32220;49.808;9.968;2023-03-18T02:41:22;98412.88;;;9.37;67.73
46506;BME280;32220;49.808;9.968;2023-03-18T02:43:53;98415.84;;;9.45;69.14
46506;BME280;32220;49.808;9.968;2023-03-18T02:46:30;98412.66;;;9.40;68.27
46506;BME280;32220;49.808;9.968;2023-03-18T02:49:02;98410.13;;;9.39;67.99
46506;BME280;32220;49.808;9.968;2023-03-18T02:51:33;98422.22;;;9.55;67.69
46506;BME280;32220;49.808;9.968;2023-03-18T02:54:04;98429.03;;;9.59;67.25
46506;BME280;32220;49.808;9.968;2023-03-18T02:56:33;98433.28;;;9.62;67.42
46506;BME280;32220;49.808;9.968;2023-03-18T02:59:03;98435.59;;;9.66;66.87
46506;BME280;32220;49.808;9.968;2023-03-18T03:01:34;98439.94;;;9.67;67.09
46506;BME280;32220;49.808;9.968;2023-03-18T03:04:03;98440.69;;;9.69;66.55
46506;BME280;32220;49.808;9.968;2023-03-18T03:06:32;98444.09;;;9.71;66.43
46506;BME280;32220;49.808;9.968;2023-03-18T03:09:00;98446.44;;;9.76;66.46
46506;BME280;32220;49.808;9.968;2023-03-18T03:11:29;98421.63;;;9.64;66.11
46506;BME280;32220;49.808;9.968;2023-03-18T03:14:07;98448.97;;;9.78;66.53
46506;BME280;32220;49.808;9.968;2023-03-18T03:16:36;98455.94;;;9.79;66.41
46506;BME280;32220;49.808;9.968;2023-03-18T03:19:04;98433.91;;;9.65;66.26
46506;BME280;32220;49.808;9.968;2023-03-18T03:21:33;98450.47;;;9.82;66.83
46506;BME280;32220;49.808;9.968;2023-03-18T03:24:02;98431.81;;;9.70;66.97
46506;BME280;32220;49.808;9.968;2023-03-18T03:26:30;98442.63;;;9.80;67.65
46506;BME280;32220;49.808;9.968;2023-03-18T03:28:59;98445.47;;;9.77;67.76
46506;BME280;32220;49.808;9.968;2023-03-18T03:31:29;98436.66;;;9.64;67.78
46506;BME280;32220;49.808;9.968;2023-03-18T03:33:57;98441.50;;;9.57;67.36
46506;BME280;32220;49.808;9.968;2023-03-18T03:36:25;98453.56;;;9.61;67.22
46506;BME280;32220;49.808;9.968;2023-03-18T03:38:55;98440.59;;;9.44;69.15
46506;BME280;32220;49.808;9.968;2023-03-18T03:41:23;98433.44;;;9.32;68.45
46506;BME280;32220;49.808;9.968;2023-03-18T03:43:51;98449.13;;;9.35;68.23
46506;BME280;32220;49.808;9.968;2023-03-18T03:46:19;98462.22;;;9.36;68.12
46506;BME280;32220;49.808;9.968;2023-03-18T03:48:49;98463.19;;;9.35;67.96
46506;BME280;32220;49.808;9.968;2023-03-18T03:51:16;98457.03;;;9.35;68.81
46506;BME280;32220;49.808;9.968;2023-03-18T03:53:45;98461.47;;;9.34;69.22
46506;BME280;32220;49.808;9.968;2023-03-18T03:56:14;98462.31;;;9.35;69.05
46506;BME280;32220;49.808;9.968;2023-03-18T03:58:42;98459.78;;;9.33;69.32
46506;BME280;32220;49.808;9.968;2023-03-18T04:01:11;98464.22;;;9.33;68.88
46506;BME280;32220;49.808;9.968;2023-03-18T04:03:39;98463.56;;;9.29;69.12
46506;BME280;32220;49.808;9.968;2023-03-18T04:06:08;98463.97;;;9.23;69.22
46506;BME280;32220;49.808;9.968;2023-03-18T04:08:43;98466.88;;;9.19;68.70
46506;BME280;32220;49.808;9.968;2023-03-18T04:11:11;98468.97;;;9.14;68.86
46506;BME280;32220;49.808;9.968;2023-03-18T04:13:40;98473.59;;;9.10;69.01
46506;BME280;32220;49.808;9.968;2023-03-18T04:16:08;98438.06;;;8.87;69.36
46506;BME280;32220;49.808;9.968;2023-03-18T04:18:36;98476.50;;;9.06;69.12
46506;BME280;32220;49.808;9.968;2023-03-18T04:21:05;98476.50;;;9.06;69.10
46506;BME280;32220;49.808;9.968;2023-03-18T04:23:44;98476.69;;;9.02;68.86
46506;BME280;32220;49.808;9.968;2023-03-18T04:26:13;98482.28;;;9.12;68.85
46506;BME280;32220;49.808;9.968;2023-03-18T04:28:41;98476.50;;;9.06;69.18
46506;BME280;32220;49.808;9.968;2023-03-18T04:31:12;98485.94;;;9.10;69.31
46506;BME280;32220;49.808;9.968;2023-03-18T04:33:40;98485.88;;;9.11;68.90
46506;BME280;32220;49.808;9.968;2023-03-18T04:36:09;98495.66;;;9.09;68.78
46506;BME280;32220;49.808;9.968;2023-03-18T04:38:37;98486.22;;;9.05;68.62
46506;BME280;32220;49.808;9.968;2023-03-18T04:41:07;98480.66;;;8.95;68.57
46506;BME280;32220;49.808;9.968;2023-03-18T04:43:35;98487.66;;;8.96;68.39
46506;BME280;32220;49.808;9.968;2023-03-18T04:46:04;98493.69;;;9.13;68.48
46506;BME280;32220;49.808;9.968;2023-03-18T04:48:33;98491.69;;;9.16;68.39
46506;BME280;32220;49.808;9.968;2023-03-18T04:51:04;98484.53;;;9.18;68.75
46506;BME280;32220;49.808;9.968;2023-03-18T04:53:34;98472.16;;;9.19;69.79
46506;BME280;32220;49.808;9.968;2023-03-18T04:56:02;98470.28;;;9.21;69.16
46506;BME280;32220;49.808;9.968;2023-03-18T04:58:42;98466.13;;;9.17;68.84
46506;BME280;32220;49.808;9.968;2023-03-18T05:01:15;98487.34;;;9.29;68.79
46506;BME280;32220;49.808;9.968;2023-03-18T05:03:43;98490.63;;;9.33;68.23
46506;BME280;32220;49.808;9.968;2023-03-18T05:06:20;98478.78;;;9.26;68.17
46506;BME280;32220;49.808;9.968;2023-03-18T05:08:54;98499.69;;;9.29;68.27
46506;BME280;32220;49.808;9.968;2023-03-18T05:11:23;98501.78;;;9.24;68.41
46506;BME280;32220;49.808;9.968;2023-03-18T05:13:54;98488.19;;;9.16;68.51
46506;BME280;32220;49.808;9.968;2023-03-18T05:16:23;98466.88;;;9.05;69.75
46506;BME280;32220;49.808;9.968;2023-03-18T05:18:52;98430.31;;;8.84;70.51
46506;BME280;32220;49.808;9.968;2023-03-18T05:21:20;98474.63;;;9.08;70.04
46506;BME280;32220;49.808;9.968;2023-03-18T05:23:48;98465.94;;;9.06;69.64
46506;BME280;32220;49.808;9.968;2023-03-18T05:26:16;98458.44;;;8.99;69.29
46506;BME280;32220;49.808;9.968;2023-03-18T05:28:46;98482.63;;;9.20;69.15
46506;BME280;32220;49.808;9.968;2023-03-18T05:31:36;98484.25;;;9.23;69.35
46506;BME280;32220;49.808;9.968;2023-03-18T05:34:04;98488.50;;;9.25;69.09
46506;BME280;32220;49.808;9.968;2023-03-18T05:36:35;98488.41;;;9.27;68.91
46506;BME280;32220;49.808;9.968;2023-03-18T05:39:07;98487.25;;;9.31;68.77
46506;BME280;32220;49.808;9.968;2023-03-18T05:41:36;98497.44;;;9.37;68.60
46506;BME280;32220;49.808;9.968;2023-03-18T05:44:07;98508.84;;;9.38;68.45
46506;BME280;32220;49.808;9.968;2023-03-18T05:46:39;98508.19;;;9.34;68.47
46506;BME280;32220;49.808;9.968;2023-03-18T05:49:15;98508.56;;;9.28;69.00
46506;BME280;32220;49.808;9.968;2023-03-18T05:51:59;98501.22;;;9.19;68.85
46506;BME280;32220;49.808;9.968;2023-03-18T05:54:43;98501.91;;;9.08;69.18
46506;BME280;32220;49.808;9.968;2023-03-18T05:57:14;98494.56;;;8.99;69.29
46506;BME280;32220;49.808;9.968;2023-03-18T05:59:42;98474.44;;;8.82;70.88
46506;BME280;32220;49.808;9.968;2023-03-18T06:02:12;98498.41;;;8.93;70.76
46506;BME280;32220;49.808;9.968;2023-03-18T06:04:40;98495.75;;;8.93;70.70
46506;BME280;32220;49.808;9.968;2023-03-18T06:07:08;98503.88;;;9.05;70.12
46506;BME280;32220;49.808;9.968;2023-03-18T06:09:37;98508.38;;;9.17;69.73
46506;BME280;32220;49.808;9.968;2023-03-18T06:12:05;98504.97;;;9.29;70.22
46506;BME280;32220;49.808;9.968;2023-03-18T06:14:33;98485.34;;;9.33;70.09
46506;BME280;32220;49.808;9.968;2023-03-18T06:17:02;98499.84;;;9.54;69.81
46506;BME280;32220;49.808;9.968;2023-03-18T06:19:32;98510.75;;;9.77;69.13
46506;BME280;32220;49.808;9.968;2023-03-18T06:22:00;98499.47;;;9.87;69.75
46506;BME280;32220;49.808;9.968;2023-03-18T06:24:28;98491.97;;;9.94;69.75
46506;BME280;32220;49.808;9.968;2023-03-18T06:26:57;98501.94;;;10.03;69.76
46506;BME280;32220;49.808;9.968;2023-03-18T06:29:25;98507.97;;;10.05;69.25
46506;BME280;32220;49.808;9.968;2023-03-18T06:31:56;98511.81;;;10.01;69.00
46506;BME280;32220;49.808;9.968;2023-03-18T06:34:25;98516.72;;;9.93;70.29
46506;BME280;32220;49.808;9.968;2023-03-18T06:36:56;98503.16;;;9.85;70.77
46506;BME280;32220;49.808;9.968;2023-03-18T06:39:25;98511.19;;;9.83;70.57
46506;BME280;32220;49.808;9.968;2023-03-18T06:41:53;98519.03;;;9.85;69.99
46506;BME280;32220;49.808;9.968;2023-03-18T06:44:29;98520.53;;;9.89;69.96
46506;BME280;32220;49.808;9.968;2023-03-18T06:47:03;98523.63;;;9.95;69.39
46506;BME280;32220;49.808;9.968;2023-03-18T06:49:35;98523.31;;;10.00;69.16
46506;BME280;32220;49.808;9.968;2023-03-18T06:52:13;98511.94;;;10.12;70.44
46506;BME280;32220;49.808;9.968;2023-03-18T06:54:45;98521.94;;;10.21;71.01
46506;BME280;32220;49.808;9.968;2023-03-18T06:57:14;98481.97;;;10.12;70.44
46506;BME280;32220;49.808;9.968;2023-03-18T06:59:42;98518.19;;;10.63;70.02
46506;BME280;32220;49.808;9.968;2023-03-18T07:02:10;98505.09;;;11.00;69.02
46506;BME280;32220;49.808;9.968;2023-03-18T07:04:38;98504.72;;;11.66;67.71
46506;BME280;32220;49.808;9.968;2023-03-18T07:07:07;98539.00;;;12.76;65.93
46506;BME280;32220;49.808;9.968;2023-03-18T07:09:37;98557.09;;;13.73;63.45
46506;BME280;32220;49.808;9.968;2023-03-18T07:12:06;98567.13;;;14.34;60.86
46506;BME280;32220;49.808;9.968;2023-03-18T07:14:34;98569.78;;;14.78;59.49
46506;BME280;32220;49.808;9.968;2023-03-18T07:17:01;98589.84;;;15.65;57.60
46506;BME280;32220;49.808;9.968;2023-03-18T07:19:29;98605.25;;;16.51;54.61
46506;BME280;32220;49.808;9.968;2023-03-18T07:21:59;98612.00;;;16.55;53.72
46506;BME280;32220;49.808;9.968;2023-03-18T07:24:27;98604.94;;;16.35;53.83
46506;BME280;32220;49.808;9.968;2023-03-18T07:26:57;98607.97;;;16.11;53.79
46506;BME280;32220;49.808;9.968;2023-03-18T07:29:25;98603.44;;;15.92;54.54
46506;BME280;32220;49.808;9.968;2023-03-18T07:31:53;98602.13;;;15.87;54.62
46506;BME280;32220;49.808;9.968;2023-03-18T07:34:21;98601.78;;;16.01;54.34
46506;BME280;32220;49.808;9.968;2023-03-18T07:36:49;98607.16;;;16.20;54.18
46506;BME280;32220;49.808;9.968;2023-03-18T07:39:17;98617.28;;;16.16;53.52
46506;BME280;32220;49.808;9.968;2023-03-18T07:41:44;98609.81;;;16.10;53.83
46506;BME280;32220;49.808;9.968;2023-03-18T07:44:22;98598.97;;;16.02;54.07
46506;BME280;32220;49.808;9.968;2023-03-18T07:46:50;98610.06;;;16.07;53.47
46506;BME280;32220;49.808;9.968;2023-03-18T07:49:18;98604.19;;;16.04;53.68
46506;BME280;32220;49.808;9.968;2023-03-18T07:51:46;98606.59;;;16.07;53.46
46506;BME280;32220;49.808;9.968;2023-03-18T07:54:15;98592.94;;;16.10;53.84
46506;BME280;32220;49.808;9.968;2023-03-18T07:56:43;98605.91;;;16.24;53.85
46506;BME280;32220;49.808;9.968;2023-03-18T07:59:11;98611.09;;;16.26;53.74
46506;BME280;32220;49.808;9.968;2023-03-18T08:01:40;98592.53;;;16.14;53.82
46506;BME280;32220;49.808;9.968;2023-03-18T08:04:08;98611.66;;;16.20;54.11
46506;BME280;32220;49.808;9.968;2023-03-18T08:06:37;98615.41;;;16.07;54.13
46506;BME280;32220;49.808;9.968;2023-03-18T08:09:05;98619.13;;;15.86;54.22
46506;BME280;32220;49.808;9.968;2023-03-18T08:11:34;98611.19;;;15.65;54.70
46506;BME280;32220;49.808;9.968;2023-03-18T08:14:02;98619.88;;;15.57;54.79
46506;BME280;32220;49.808;9.968;2023-03-18T08:16:29;98608.59;;;15.54;54.75
46506;BME280;32220;49.808;9.968;2023-03-18T08:18:59;98605.25;;;15.61;54.82
46506;BME280;32220;49.808;9.968;2023-03-18T08:21:27;98601.13;;;15.78;54.55
46506;BME280;32220;49.808;9.968;2023-03-18T08:23:55;98620.63;;;16.68;53.67
46506;BME280;32220;49.808;9.968;2023-03-18T08:26:23;98635.53;;;18.67;50.73
46506;BME280;32220;49.808;9.968;2023-03-18T08:28:51;98651.19;;;20.95;46.81
46506;BME280;32220;49.808;9.968;2023-03-18T08:31:18;98677.94;;;23.56;41.47
46506;BME280;32220;49.808;9.968;2023-03-18T08:33:46;98688.47;;;25.34;38.56
46506;BME280;32220;49.808;9.968;2023-03-18T08:36:16;98694.28;;;26.30;36.29
46506;BME280;32220;49.808;9.968;2023-03-18T08:38:43;98688.00;;;26.01;36.53
46506;BME280;32220;49.808;9.968;2023-03-18T08:41:11;98704.38;;;27.77;33.81
46506;BME280;32220;49.808;9.968;2023-03-18T08:43:39;98711.81;;;29.50;31.60
46506;BME280;32220;49.808;9.968;2023-03-18T08:46:08;98715.44;;;30.98;29.95
46506;BME280;32220;49.808;9.968;2023-03-18T08:48:36;98726.41;;;32.35;27.14
46506;BME280;32220;49.808;9.968;2023-03-18T08:51:04;98723.94;;;33.37;25.62
46506;BME280;32220;49.808;9.968;2023-03-18T08:53:34;98738.78;;;34.31;23.91
46506;BME280;32220;49.808;9.968;2023-03-18T08:56:03;98735.44;;;35.55;23.45
46506;BME280;32220;49.808;9.968;2023-03-18T08:58:33;98743.03;;;35.43;21.73
46506;BME280;32220;49.808;9.968;2023-03-18T09:01:01;98716.50;;;35.10;22.54
46506;BME280;32220;49.808;9.968;2023-03-18T09:03:30;98737.16;;;36.20;21.60
46506;BME280;32220;49.808;9.968;2023-03-18T09:05:58;98734.53;;;37.55;20.77
46506;BME280;32220;49.808;9.968;2023-03-18T09:08:26;98740.03;;;38.71;19.50
46506;BME280;32220;49.808;9.968;2023-03-18T09:10:58;98742.91;;;39.70;18.54
46506;BME280;32220;49.808;9.968;2023-03-18T09:13:26;98744.84;;;40.71;18.02
46506;BME280;32220;49.808;9.968;2023-03-18T09:15:54;98747.16;;;41.54;16.86
46506;BME280;32220;49.808;9.968;2023-03-18T09:18:22;98722.78;;;41.84;16.15
46506;BME280;32220;49.808;9.968;2023-03-18T09:20:50;98717.00;;;41.99;16.41
46506;BME280;32220;49.808;9.968;2023-03-18T09:23:18;98718.59;;;42.33;16.23
46506;BME280;32220;49.808;9.968;2023-03-18T09:25:47;98718.44;;;42.43;15.90
46506;BME280;32220;49.808;9.968;2023-03-18T09:28:18;98731.88;;;42.68;15.86
46506;BME280;32220;49.808;9.968;2023-03-18T09:30:46;98729.84;;;42.87;15.13
46506;BME280;32220;49.808;9.968;2023-03-18T09:33:13;98736.09;;;42.52;14.97
46506;BME280;32220;49.808;9.968;2023-03-18T09:35:41;98739.47;;;41.46;15.06
46506;BME280;32220;49.808;9.968;2023-03-18T09:38:12;98721.47;;;40.48;16.26
46506;BME280;32220;49.808;9.968;2023-03-18T09:40:49;98717.84;;;39.90;16.62
46506;BME280;32220;49.808;9.968;2023-03-18T09:43:41;98704.28;;;40.17;16.12
46506;BME280;32220;49.808;9.968;2023-03-18T09:46:20;98725.16;;;39.71;16.23
46506;BME280;32220;49.808;9.968;2023-03-18T09:49:09;98713.41;;;38.91;15.95
46506;BME280;32220;49.808;9.968;2023-03-18T09:51:52;98720.19;;;38.39;16.68
46506;BME280;32220;49.808;9.968;2023-03-18T09:54:30;98717.88;;;38.82;16.03
46506;BME280;32220;49.808;9.968;2023-03-18T09:57:01;98705.75;;;38.47;15.92
46506;BME280;32220;49.808;9.968;2023-03-18T09:59:36;98724.63;;;38.25;15.55
46506;BME280;32220;49.808;9.968;2023-03-18T10:02:16;98713.59;;;38.20;16.09
46506;BME280;32220;49.808;9.968;2023-03-18T10:04:49;98710.22;;;37.72;16.88
46506;BME280;32220;49.808;9.968;2023-03-18T10:07:22;98708.59;;;37.76;16.87
46506;BME280;32220;49.808;9.968;2023-03-18T10:09:54;98688.13;;;38.13;16.42
46506;BME280;32220;49.808;9.968;2023-03-18T10:12:28;98698.31;;;39.22;16.33
46506;BME280;32220;49.808;9.968;2023-03-18T10:15:11;98716.78;;;40.44;15.02
46506;BME280;32220;49.808;9.968;2023-03-18T10:17:41;98719.84;;;41.38;14.89
46506;BME280;32220;49.808;9.968;2023-03-18T10:20:16;98725.41;;;42.26;13.43
46506;BME280;32220;49.808;9.968;2023-03-18T10:22:59;98739.00;;;42.74;12.74
46506;BME280;32220;49.808;9.968;2023-03-18T10:25:34;98726.94;;;43.56;12.97
46506;BME280;32220;49.808;9.968;2023-03-18T10:28:23;98729.91;;;44.40;12.52
46506;BME280;32220;49.808;9.968;2023-03-18T10:31:03;98717.09;;;45.27;11.96
46506;BME280;32220;49.808;9.968;2023-03-18T10:33:44;98728.31;;;46.30;10.75
46506;BME280;32220;49.808;9.968;2023-03-18T10:36:17;98715.53;;;46.97;11.08
46506;BME280;32220;49.808;9.968;2023-03-18T10:38:47;98706.38;;;47.38;10.96
46506;BME280;32220;49.808;9.968;2023-03-18T10:41:20;98710.50;;;47.82;10.18
46506;BME280;32220;49.808;9.968;2023-03-18T10:43:51;98717.03;;;48.07;10.00
46506;BME280;32220;49.808;9.968;2023-03-18T10:46:23;98691.69;;;47.11;10.26
46506;BME280;32220;49.808;9.968;2023-03-18T10:48:54;98702.41;;;47.39;10.80
46506;BME280;32220;49.808;9.968;2023-03-18T10:51:29;98696.53;;;47.73;10.52
46506;BME280;32220;49.808;9.968;2023-03-18T10:54:02;98698.03;;;47.71;10.15
46506;BME280;32220;49.808;9.968;2023-03-18T10:56:34;98703.13;;;47.77;10.73
46506;BME280;32220;49.808;9.968;2023-03-18T10:59:09;98688.75;;;47.58;10.16
46506;BME280;32220;49.808;9.968;2023-03-18T11:01:40;98690.56;;;47.96;11.05
46506;BME280;32220;49.808;9.968;2023-03-18T11:04:12;98692.44;;;48.04;10.17
46506;BME280;32220;49.808;9.968;2023-03-18T11:06:44;98673.88;;;47.78;10.76
46506;BME280;32220;49.808;9.968;2023-03-18T11:09:16;98675.06;;;48.22;10.53
46506;BME280;32220;49.808;9.968;2023-03-18T11:11:45;98679.13;;;48.70;10.14
46506;BME280;32220;49.808;9.968;2023-03-18T11:14:14;98682.50;;;48.76;9.77
46506;BME280;32220;49.808;9.968;2023-03-18T11:16:47;98676.88;;;48.64;10.04
46506;BME280;32220;49.808;9.968;2023-03-18T11:19:35;98674.88;;;47.95;9.92
46506;BME280;32220;49.808;9.968;2023-03-18T11:22:16;98641.03;;;47.91;10.53
46506;BME280;32220;49.808;9.968;2023-03-18T11:25:00;98646.66;;;48.61;10.09
46506;BME280;32220;49.808;9.968;2023-03-18T11:27:35;98671.00;;;49.30;9.90
46506;BME280;32220;49.808;9.968;2023-03-18T11:30:12;98658.88;;;48.89;9.35
46506;BME280;32220;49.808;9.968;2023-03-18T11:32:51;98664.28;;;48.12;9.99
46506;BME280;32220;49.808;9.968;2023-03-18T11:35:21;98657.94;;;47.49;10.84
46506;BME280;32220;49.808;9.968;2023-03-18T11:37:49;98653.88;;;46.59;10.91
46506;BME280;32220;49.808;9.968;2023-03-18T11:40:23;98607.53;;;45.07;11.52
46506;BME280;32220;49.808;9.968;2023-03-18T11:42:55;98641.41;;;44.97;11.04
46506;BME280;32220;49.808;9.968;2023-03-18T11:45:33;98631.31;;;44.00;12.04
46506;BME280;32220;49.808;9.968;2023-03-18T11:48:05;98626.66;;;42.65;12.79
46506;BME280;32220;49.808;9.968;2023-03-18T11:50:38;98621.41;;;41.90;13.47
46506;BME280;32220;49.808;9.968;2023-03-18T11:53:15;98609.72;;;41.42;13.33
46506;BME280;32220;49.808;9.968;2023-03-18T11:55:50;98606.41;;;42.18;12.91
46506;BME280;32220;49.808;9.968;2023-03-18T12:01:24;98605.59;;;43.58;12.37
46506;BME280;32220;49.808;9.968;2023-03-18T12:04:18;98622.13;;;43.99;11.69
46506;BME280;32220;49.808;9.968;2023-03-18T12:07:02;98611.88;;;43.95;12.11
46506;BME280;32220;49.808;9.968;2023-03-18T12:09:38;98601.13;;;43.80;12.14
46506;BME280;32220;49.808;9.968;2023-03-18T12:12:20;98595.84;;;43.78;11.98
46506;BME280;32220;49.808;9.968;2023-03-18T12:15:00;98567.53;;;43.40;11.85
46506;BME280;32220;49.808;9.968;2023-03-18T12:17:36;98596.13;;;43.23;12.23
46506;BME280;32220;49.808;9.968;2023-03-18T12:23:12;98599.41;;;44.32;12.27
46506;BME280;32220;49.808;9.968;2023-03-18T12:25:59;98606.84;;;44.93;11.68
46506;BME280;32220;49.808;9.968;2023-03-18T12:28:47;98606.38;;;45.26;11.00
46506;BME280;32220;49.808;9.968;2023-03-18T12:31:29;98588.63;;;45.30;11.11
46506;BME280;32220;49.808;9.968;2023-03-18T12:34:00;98598.50;;;45.45;10.99
46506;BME280;32220;49.808;9.968;2023-03-18T12:36:48;98599.28;;;45.71;10.62
46506;BME280;32220;49.808;9.968;2023-03-18T12:39:48;98583.53;;;45.58;10.82
46506;BME280;32220;49.808;9.968;2023-03-18T12:42:36;98584.34;;;45.59;11.03
46506;BME280;32220;49.808;9.968;2023-03-18T12:45:10;98585.47;;;45.06;11.54
46506;BME280;32220;49.808;9.968;2023-03-18T12:47:44;98585.19;;;44.42;11.63
46506;BME280;32220;49.808;9.968;2023-03-18T12:50:15;98590.97;;;43.84;12.07
46506;BME280;32220;49.808;9.968;2023-03-18T12:52:49;98591.09;;;44.01;11.74
46506;BME280;32220;49.808;9.968;2023-03-18T12:55:22;98571.88;;;43.99;12.44
46506;BME280;32220;49.808;9.968;2023-03-18T12:57:57;98580.94;;;44.45;11.61
46506;BME280;32220;49.808;9.968;2023-03-18T13:00:30;98581.00;;;44.22;11.77
46506;BME280;32220;49.808;9.968;2023-03-18T13:03:02;98566.66;;;43.76;12.17
46506;BME280;32220;49.808;9.968;2023-03-18T13:05:40;98579.34;;;43.90;12.21
46506;BME280;32220;49.808;9.968;2023-03-18T13:11:25;98570.44;;;44.59;11.86
46506;BME280;32220;49.808;9.968;2023-03-18T13:14:00;98574.06;;;44.51;11.86
46506;BME280;32220;49.808;9.968;2023-03-18T13:16:31;98576.91;;;44.28;12.01
46506;BME280;32220;49.808;9.968;2023-03-18T13:19:02;98586.16;;;43.98;12.07
46506;BME280;32220;49.808;9.968;2023-03-18T13:21:35;98570.47;;;43.57;12.07
46506;BME280;32220;49.808;9.968;2023-03-18T13:24:23;98564.00;;;43.26;12.50
46506;BME280;32220;49.808;9.968;2023-03-18T13:27:29;98547.13;;;43.31;12.60
46506;BME280;32220;49.808;9.968;2023-03-18T13:30:08;98563.13;;;43.61;12.46
46506;BME280;32220;49.808;9.968;2023-03-18T13:33:13;98551.06;;;43.52;12.63
46506;BME280;32220;49.808;9.968;2023-03-18T13:36:20;98559.91;;;43.54;12.29
46506;BME280;32220;49.808;9.968;2023-03-18T13:42:04;98549.03;;;42.86;12.47